sensor_id;sensor_type;location;lat;lon;timestamp;P1;durP1;ratioP1;P2;durP2;ratioP2
5682;SDS011;2864;49.220;8.654;2023-01-08T00:01:40;11.50;;;7.73;;
5682;SDS011;2864;49.220;8.654;2023-01-08T00:04:06;11.53;;;8.17;;
5682;SDS011;2864;49.220;8.654;2023-01-08T00:06:32;10.77;;;6.87;;
5682;SDS011;2864;49.220;8.654;2023-01-08T00:08:58;9.50;;;5.53;;
5682;SDS011;2864;49.220;8.654;2023-01-08T00:11:24;7.23;;;5.30;;
5682;SDS011;2864;49.220;8.654;2023-01-08T00:13:50;7.93;;;5.07;;
5682;SDS011;2864;49.220;8.654;2023-01-08T00:16:16;7.63;;;4.90;;
5682;SDS011;2864;49.220;8.654;2023-01-08T00:18:43;6.43;;;5.03;;
5682;SDS011;2864;49.220;8.654;2023-01-08T00:21:10;7.90;;;4.77;;
5682;SDS011;2864;49.220;8.654;2023-01-08T00:23:36;6.70;;;5.30;;
5682;SDS011;2864;49.220;8.654;2023-01-08T00:26:03;6.13;;;4.90;;
5682;SDS011;2864;49.220;8.654;2023-01-08T00:28:30;8.97;;;5.60;;
5682;SDS011;2864;49.220;8.654;2023-01-08T00:30:56;6.93;;;5.73;;
5682;SDS011;2864;49.220;8.654;2023-01-08T00:33:22;7.07;;;5.27;;
5682;SDS011;2864;49.220;8.654;2023-01-08T00:35:47;5.83;;;4.93;;
5682;SDS011;2864;49.220;8.654;2023-01-08T00:38:13;9.80;;;5.70;;
5682;SDS011;2864;49.220;8.654;2023-01-08T00:40:39;6.43;;;5.60;;
5682;SDS011;2864;49.220;8.654;2023-01-08T00:43:05;5.83;;;5.17;;
5682;SDS011;2864;49.220;8.654;2023-01-08T00:45:31;7.87;;;4.97;;
5682;SDS011;2864;49.220;8.654;2023-01-08T00:47:57;7.73;;;5.60;;
5682;SDS011;2864;49.220;8.654;2023-01-08T00:50:23;9.20;;;5.40;;
5682;SDS011;2864;49.220;8.654;2023-01-08T00:52:49;6.50;;;4.73;;
5682;SDS011;2864;49.220;8.654;2023-01-08T00:55:15;6.90;;;5.10;;
5682;SDS011;2864;49.220;8.654;2023-01-08T00:57:41;5.90;;;4.70;;
5682;SDS011;2864;49.220;8.654;2023-01-08T01:00:07;6.40;;;4.93;;
5682;SDS011;2864;49.220;8.654;2023-01-08T01:02:36;6.17;;;4.60;;
5682;SDS011;2864;49.220;8.654;2023-01-08T01:05:02;5.37;;;4.63;;
5682;SDS011;2864;49.220;8.654;2023-01-08T01:07:29;7.23;;;4.60;;
5682;SDS011;2864;49.220;8.654;2023-01-08T01:09:55;8.00;;;5.17;;
5682;SDS011;2864;49.220;8.654;2023-01-08T01:12:21;6.27;;;4.97;;
5682;SDS011;2864;49.220;8.654;2023-01-08T01:14:47;6.57;;;4.60;;
5682;SDS011;2864;49.220;8.654;2023-01-08T01:17:12;6.43;;;5.00;;
5682;SDS011;2864;49.220;8.654;2023-01-08T01:19:38;6.13;;;4.37;;
5682;SDS011;2864;49.220;8.654;2023-01-08T01:22:05;6.17;;;4.77;;
5682;SDS011;2864;49.220;8.654;2023-01-08T01:24:30;5.23;;;4.33;;
5682;SDS011;2864;49.220;8.654;2023-01-08T01:26:56;5.93;;;4.83;;
5682;SDS011;2864;49.220;8.654;2023-01-08T01:29:23;5.63;;;4.30;;
5682;SDS011;2864;49.220;8.654;2023-01-08T01:31:49;5.43;;;4.33;;
5682;SDS011;2864;49.220;8.654;2023-01-08T01:34:15;4.60;;;3.90;;
5682;SDS011;2864;49.220;8.654;2023-01-08T01:36:40;6.37;;;4.07;;
5682;SDS011;2864;49.220;8.654;2023-01-08T01:39:06;5.77;;;4.10;;
5682;SDS011;2864;49.220;8.654;2023-01-08T01:41:36;5.03;;;3.83;;
5682;SDS011;2864;49.220;8.654;2023-01-08T01:47:00;7.83;;;4.83;;
5682;SDS011;2864;49.220;8.654;2023-01-08T01:49:29;6.53;;;5.03;;
5682;SDS011;2864;49.220;8.654;2023-01-08T01:51:55;6.37;;;4.77;;
5682;SDS011;2864;49.220;8.654;2023-01-08T01:54:26;7.20;;;5.37;;
5682;SDS011;2864;49.220;8.654;2023-01-08T01:56:53;6.23;;;4.53;;
5682;SDS011;2864;49.220;8.654;2023-01-08T01:59:20;6.10;;;4.57;;
5682;SDS011;2864;49.220;8.654;2023-01-08T02:01:45;6.07;;;4.93;;
5682;SDS011;2864;49.220;8.654;2023-01-08T02:04:11;6.67;;;5.00;;
5682;SDS011;2864;49.220;8.654;2023-01-08T02:06:45;7.20;;;4.83;;
5682;SDS011;2864;49.220;8.654;2023-01-08T02:11:56;5.40;;;4.63;;
5682;SDS011;2864;49.220;8.654;2023-01-08T02:17:26;8.17;;;4.60;;
5682;SDS011;2864;49.220;8.654;2023-01-08T02:20:02;4.40;;;3.80;;
5682;SDS011;2864;49.220;8.654;2023-01-08T02:27:52;6.10;;;4.13;;
5682;SDS011;2864;49.220;8.654;2023-01-08T02:30:19;5.10;;;4.50;;
5682;SDS011;2864;49.220;8.654;2023-01-08T02:32:45;5.47;;;4.37;;
5682;SDS011;2864;49.220;8.654;2023-01-08T02:35:11;5.47;;;4.40;;
5682;SDS011;2864;49.220;8.654;2023-01-08T02:37:37;5.30;;;4.20;;
5682;SDS011;2864;49.220;8.654;2023-01-08T02:42:46;5.37;;;4.17;;
5682;SDS011;2864;49.220;8.654;2023-01-08T02:48:12;4.30;;;3.90;;
5682;SDS011;2864;49.220;8.654;2023-01-08T02:50:45;5.43;;;4.20;;
5682;SDS011;2864;49.220;8.654;2023-01-08T02:53:28;5.27;;;4.17;;
5682;SDS011;2864;49.220;8.654;2023-01-08T02:56:02;6.57;;;4.50;;
5682;SDS011;2864;49.220;8.654;2023-01-08T02:58:32;6.17;;;4.27;;
5682;SDS011;2864;49.220;8.654;2023-01-08T03:01:01;5.23;;;4.40;;
5682;SDS011;2864;49.220;8.654;2023-01-08T03:03:28;5.37;;;4.63;;
5682;SDS011;2864;49.220;8.654;2023-01-08T03:06:02;5.57;;;4.90;;
5682;SDS011;2864;49.220;8.654;2023-01-08T03:08:30;6.93;;;4.73;;
5682;SDS011;2864;49.220;8.654;2023-01-08T03:11:02;5.93;;;4.83;;
5682;SDS011;2864;49.220;8.654;2023-01-08T03:13:31;5.37;;;4.63;;
5682;SDS011;2864;49.220;8.654;2023-01-08T03:16:02;6.97;;;4.60;;
5682;SDS011;2864;49.220;8.654;2023-01-08T03:18:33;6.93;;;4.93;;
5682;SDS011;2864;49.220;8.654;2023-01-08T03:21:04;6.73;;;4.97;;
5682;SDS011;2864;49.220;8.654;2023-01-08T03:23:31;5.53;;;4.90;;
5682;SDS011;2864;49.220;8.654;2023-01-08T03:25:59;5.53;;;4.57;;
5682;SDS011;2864;49.220;8.654;2023-01-08T03:28:27;6.70;;;4.90;;
5682;SDS011;2864;49.220;8.654;2023-01-08T03:30:59;5.20;;;4.57;;
5682;SDS011;2864;49.220;8.654;2023-01-08T03:33:26;6.10;;;4.57;;
5682;SDS011;2864;49.220;8.654;2023-01-08T03:35:55;7.10;;;4.60;;
5682;SDS011;2864;49.220;8.654;2023-01-08T03:38:27;5.30;;;4.30;;
5682;SDS011;2864;49.220;8.654;2023-01-08T03:40:59;6.63;;;4.53;;
5682;SDS011;2864;49.220;8.654;2023-01-08T03:43:31;8.87;;;4.77;;
5682;SDS011;2864;49.220;8.654;2023-01-08T03:45:58;4.77;;;4.17;;
5682;SDS011;2864;49.220;8.654;2023-01-08T03:48:27;6.37;;;4.57;;
5682;SDS011;2864;49.220;8.654;2023-01-08T03:50:55;5.30;;;4.30;;
5682;SDS011;2864;49.220;8.654;2023-01-08T03:53:20;5.13;;;4.47;;
5682;SDS011;2864;49.220;8.654;2023-01-08T03:55:46;5.60;;;4.40;;
5682;SDS011;2864;49.220;8.654;2023-01-08T03:58:11;5.13;;;4.53;;
5682;SDS011;2864;49.220;8.654;2023-01-08T04:00:38;7.47;;;5.07;;
5682;SDS011;2864;49.220;8.654;2023-01-08T04:03:04;5.50;;;4.20;;
5682;SDS011;2864;49.220;8.654;2023-01-08T04:05:30;6.10;;;4.67;;
5682;SDS011;2864;49.220;8.654;2023-01-08T04:07:56;5.97;;;4.83;;
5682;SDS011;2864;49.220;8.654;2023-01-08T04:10:23;7.63;;;4.53;;
5682;SDS011;2864;49.220;8.654;2023-01-08T04:12:49;6.10;;;4.93;;
5682;SDS011;2864;49.220;8.654;2023-01-08T04:15:15;5.30;;;4.23;;
5682;SDS011;2864;49.220;8.654;2023-01-08T04:17:40;6.70;;;4.60;;
5682;SDS011;2864;49.220;8.654;2023-01-08T04:20:07;5.47;;;4.73;;
5682;SDS011;2864;49.220;8.654;2023-01-08T04:22:33;5.93;;;4.57;;
5682;SDS011;2864;49.220;8.654;2023-01-08T04:24:59;5.00;;;4.50;;
5682;SDS011;2864;49.220;8.654;2023-01-08T04:27:24;6.90;;;4.70;;
5682;SDS011;2864;49.220;8.654;2023-01-08T04:29:50;6.83;;;4.80;;
5682;SDS011;2864;49.220;8.654;2023-01-08T04:32:16;5.20;;;4.70;;
5682;SDS011;2864;49.220;8.654;2023-01-08T04:34:41;6.63;;;4.97;;
5682;SDS011;2864;49.220;8.654;2023-01-08T04:37:07;6.07;;;4.87;;
5682;SDS011;2864;49.220;8.654;2023-01-08T04:39:33;6.37;;;4.70;;
5682;SDS011;2864;49.220;8.654;2023-01-08T04:41:59;8.20;;;4.90;;
5682;SDS011;2864;49.220;8.654;2023-01-08T04:44:25;7.60;;;4.83;;
5682;SDS011;2864;49.220;8.654;2023-01-08T04:46:50;5.90;;;5.30;;
5682;SDS011;2864;49.220;8.654;2023-01-08T04:49:16;7.07;;;5.00;;
5682;SDS011;2864;49.220;8.654;2023-01-08T04:51:41;7.17;;;5.33;;
5682;SDS011;2864;49.220;8.654;2023-01-08T04:54:07;6.07;;;5.00;;
5682;SDS011;2864;49.220;8.654;2023-01-08T04:56:32;6.87;;;5.93;;
5682;SDS011;2864;49.220;8.654;2023-01-08T04:58:58;7.10;;;5.57;;
5682;SDS011;2864;49.220;8.654;2023-01-08T05:01:24;7.57;;;5.43;;
5682;SDS011;2864;49.220;8.654;2023-01-08T05:03:52;6.80;;;5.50;;
5682;SDS011;2864;49.220;8.654;2023-01-08T05:06:19;6.03;;;5.13;;
5682;SDS011;2864;49.220;8.654;2023-01-08T05:08:44;6.63;;;5.13;;
5682;SDS011;2864;49.220;8.654;2023-01-08T05:11:10;7.13;;;5.50;;
5682;SDS011;2864;49.220;8.654;2023-01-08T05:13:36;6.93;;;5.50;;
5682;SDS011;2864;49.220;8.654;2023-01-08T05:16:02;6.70;;;5.73;;
5682;SDS011;2864;49.220;8.654;2023-01-08T05:18:28;9.27;;;5.90;;
5682;SDS011;2864;49.220;8.654;2023-01-08T05:20:54;7.40;;;5.30;;
5682;SDS011;2864;49.220;8.654;2023-01-08T05:23:20;5.93;;;5.33;;
5682;SDS011;2864;49.220;8.654;2023-01-08T05:25:46;7.37;;;5.50;;
5682;SDS011;2864;49.220;8.654;2023-01-08T05:28:12;6.90;;;6.03;;
5682;SDS011;2864;49.220;8.654;2023-01-08T05:30:37;7.20;;;6.10;;
5682;SDS011;2864;49.220;8.654;2023-01-08T05:33:03;6.67;;;5.57;;
5682;SDS011;2864;49.220;8.654;2023-01-08T05:35:28;7.60;;;6.23;;
5682;SDS011;2864;49.220;8.654;2023-01-08T05:37:54;9.90;;;6.90;;
5682;SDS011;2864;49.220;8.654;2023-01-08T05:40:20;7.87;;;6.70;;
5682;SDS011;2864;49.220;8.654;2023-01-08T05:42:46;9.23;;;7.30;;
5682;SDS011;2864;49.220;8.654;2023-01-08T05:45:11;9.93;;;7.13;;
5682;SDS011;2864;49.220;8.654;2023-01-08T05:47:37;8.67;;;7.20;;
5682;SDS011;2864;49.220;8.654;2023-01-08T05:50:02;8.23;;;7.13;;
5682;SDS011;2864;49.220;8.654;2023-01-08T05:52:28;8.03;;;6.53;;
5682;SDS011;2864;49.220;8.654;2023-01-08T05:54:54;8.33;;;7.07;;
5682;SDS011;2864;49.220;8.654;2023-01-08T05:57:20;9.53;;;7.27;;
5682;SDS011;2864;49.220;8.654;2023-01-08T05:59:45;9.60;;;7.27;;
5682;SDS011;2864;49.220;8.654;2023-01-08T06:02:11;10.47;;;6.90;;
5682;SDS011;2864;49.220;8.654;2023-01-08T06:04:37;11.13;;;7.47;;
5682;SDS011;2864;49.220;8.654;2023-01-08T06:07:09;8.80;;;7.03;;
5682;SDS011;2864;49.220;8.654;2023-01-08T06:09:35;7.93;;;6.20;;
5682;SDS011;2864;49.220;8.654;2023-01-08T06:12:00;10.60;;;6.20;;
5682;SDS011;2864;49.220;8.654;2023-01-08T06:14:27;9.10;;;6.70;;
5682;SDS011;2864;49.220;8.654;2023-01-08T06:16:53;7.20;;;5.90;;
5682;SDS011;2864;49.220;8.654;2023-01-08T06:19:19;7.13;;;5.83;;
5682;SDS011;2864;49.220;8.654;2023-01-08T06:21:45;6.60;;;5.40;;
5682;SDS011;2864;49.220;8.654;2023-01-08T06:24:11;6.93;;;5.80;;
5682;SDS011;2864;49.220;8.654;2023-01-08T06:26:36;6.80;;;6.10;;
5682;SDS011;2864;49.220;8.654;2023-01-08T06:29:02;6.47;;;5.63;;
5682;SDS011;2864;49.220;8.654;2023-01-08T06:31:28;8.40;;;5.83;;
5682;SDS011;2864;49.220;8.654;2023-01-08T06:33:53;6.50;;;5.30;;
5682;SDS011;2864;49.220;8.654;2023-01-08T06:36:19;8.37;;;5.20;;
5682;SDS011;2864;49.220;8.654;2023-01-08T06:38:45;6.23;;;5.33;;
5682;SDS011;2864;49.220;8.654;2023-01-08T06:41:11;6.67;;;5.03;;
5682;SDS011;2864;49.220;8.654;2023-01-08T06:43:37;5.90;;;5.00;;
5682;SDS011;2864;49.220;8.654;2023-01-08T06:46:03;4.80;;;4.23;;
5682;SDS011;2864;49.220;8.654;2023-01-08T06:48:29;5.73;;;4.20;;
5682;SDS011;2864;49.220;8.654;2023-01-08T06:50:57;7.17;;;5.00;;
5682;SDS011;2864;49.220;8.654;2023-01-08T06:53:24;8.37;;;4.77;;
5682;SDS011;2864;49.220;8.654;2023-01-08T06:55:49;5.03;;;4.30;;
5682;SDS011;2864;49.220;8.654;2023-01-08T06:58:20;5.77;;;4.00;;
5682;SDS011;2864;49.220;8.654;2023-01-08T07:00:46;4.73;;;4.23;;
5682;SDS011;2864;49.220;8.654;2023-01-08T07:03:12;6.97;;;4.33;;
5682;SDS011;2864;49.220;8.654;2023-01-08T07:05:38;5.33;;;4.73;;
5682;SDS011;2864;49.220;8.654;2023-01-08T07:08:04;5.20;;;4.70;;
5682;SDS011;2864;49.220;8.654;2023-01-08T07:10:29;6.67;;;4.73;;
5682;SDS011;2864;49.220;8.654;2023-01-08T07:12:56;10.10;;;5.10;;
5682;SDS011;2864;49.220;8.654;2023-01-08T07:15:21;6.17;;;4.80;;
5682;SDS011;2864;49.220;8.654;2023-01-08T07:17:47;4.93;;;4.40;;
5682;SDS011;2864;49.220;8.654;2023-01-08T07:20:13;8.97;;;5.90;;
5682;SDS011;2864;49.220;8.654;2023-01-08T07:22:39;9.07;;;5.93;;
5682;SDS011;2864;49.220;8.654;2023-01-08T07:25:05;6.67;;;5.40;;
5682;SDS011;2864;49.220;8.654;2023-01-08T07:27:31;6.53;;;5.03;;
5682;SDS011;2864;49.220;8.654;2023-01-08T07:29:57;6.90;;;4.90;;
5682;SDS011;2864;49.220;8.654;2023-01-08T07:32:23;7.93;;;5.13;;
5682;SDS011;2864;49.220;8.654;2023-01-08T07:34:49;10.30;;;5.30;;
5682;SDS011;2864;49.220;8.654;2023-01-08T07:37:14;8.37;;;5.20;;
5682;SDS011;2864;49.220;8.654;2023-01-08T07:39:40;7.10;;;5.33;;
5682;SDS011;2864;49.220;8.654;2023-01-08T07:42:05;9.37;;;5.83;;
5682;SDS011;2864;49.220;8.654;2023-01-08T07:44:31;7.60;;;5.50;;
5682;SDS011;2864;49.220;8.654;2023-01-08T07:46:57;12.07;;;8.03;;
5682;SDS011;2864;49.220;8.654;2023-01-08T07:49:23;8.87;;;7.00;;
5682;SDS011;2864;49.220;8.654;2023-01-08T07:51:49;12.20;;;8.47;;
5682;SDS011;2864;49.220;8.654;2023-01-08T07:54:14;12.00;;;8.80;;
5682;SDS011;2864;49.220;8.654;2023-01-08T07:56:40;14.47;;;12.27;;
5682;SDS011;2864;49.220;8.654;2023-01-08T07:59:06;18.53;;;12.20;;
5682;SDS011;2864;49.220;8.654;2023-01-08T08:01:32;12.90;;;9.87;;
5682;SDS011;2864;49.220;8.654;2023-01-08T08:03:58;12.43;;;9.73;;
5682;SDS011;2864;49.220;8.654;2023-01-08T08:06:24;11.73;;;9.17;;
5682;SDS011;2864;49.220;8.654;2023-01-08T08:08:50;11.13;;;9.30;;
5682;SDS011;2864;49.220;8.654;2023-01-08T08:11:16;12.37;;;9.70;;
5682;SDS011;2864;49.220;8.654;2023-01-08T08:13:42;11.30;;;8.97;;
5682;SDS011;2864;49.220;8.654;2023-01-08T08:16:09;11.90;;;9.00;;
5682;SDS011;2864;49.220;8.654;2023-01-08T08:18:35;12.03;;;9.20;;
5682;SDS011;2864;49.220;8.654;2023-01-08T08:21:01;15.23;;;9.23;;
5682;SDS011;2864;49.220;8.654;2023-01-08T08:23:28;13.17;;;9.13;;
5682;SDS011;2864;49.220;8.654;2023-01-08T08:25:53;12.53;;;8.90;;
5682;SDS011;2864;49.220;8.654;2023-01-08T08:28:19;14.10;;;10.33;;
5682;SDS011;2864;49.220;8.654;2023-01-08T08:30:45;14.03;;;10.03;;
5682;SDS011;2864;49.220;8.654;2023-01-08T08:33:11;12.57;;;9.93;;
5682;SDS011;2864;49.220;8.654;2023-01-08T08:35:37;11.70;;;9.23;;
5682;SDS011;2864;49.220;8.654;2023-01-08T08:38:03;11.27;;;9.27;;
5682;SDS011;2864;49.220;8.654;2023-01-08T08:40:29;13.23;;;9.70;;
5682;SDS011;2864;49.220;8.654;2023-01-08T08:42:59;13.77;;;10.37;;
5682;SDS011;2864;49.220;8.654;2023-01-08T08:45:26;11.57;;;9.33;;
5682;SDS011;2864;49.220;8.654;2023-01-08T08:47:52;12.87;;;9.40;;
5682;SDS011;2864;49.220;8.654;2023-01-08T08:50:18;16.47;;;10.27;;
5682;SDS011;2864;49.220;8.654;2023-01-08T08:52:44;15.33;;;11.23;;
5682;SDS011;2864;49.220;8.654;2023-01-08T08:55:10;12.77;;;10.53;;
5682;SDS011;2864;49.220;8.654;2023-01-08T08:57:40;18.77;;;14.53;;
5682;SDS011;2864;49.220;8.654;2023-01-08T09:00:06;23.47;;;16.27;;
5682;SDS011;2864;49.220;8.654;2023-01-08T09:02:32;28.80;;;19.83;;
5682;SDS011;2864;49.220;8.654;2023-01-08T09:04:59;29.37;;;20.13;;
5682;SDS011;2864;49.220;8.654;2023-01-08T09:07:24;26.80;;;18.90;;
5682;SDS011;2864;49.220;8.654;2023-01-08T09:09:51;25.07;;;19.00;;
5682;SDS011;2864;49.220;8.654;2023-01-08T09:12:17;21.03;;;16.20;;
5682;SDS011;2864;49.220;8.654;2023-01-08T09:14:42;16.37;;;12.90;;
5682;SDS011;2864;49.220;8.654;2023-01-08T09:17:08;12.37;;;9.83;;
5682;SDS011;2864;49.220;8.654;2023-01-08T09:19:34;10.40;;;8.03;;
5682;SDS011;2864;49.220;8.654;2023-01-08T09:22:00;9.80;;;6.10;;
5682;SDS011;2864;49.220;8.654;2023-01-08T09:24:27;7.17;;;5.53;;
5682;SDS011;2864;49.220;8.654;2023-01-08T09:26:52;8.57;;;5.90;;
5682;SDS011;2864;49.220;8.654;2023-01-08T09:29:18;10.77;;;6.80;;
5682;SDS011;2864;49.220;8.654;2023-01-08T09:31:45;9.33;;;6.53;;
5682;SDS011;2864;49.220;8.654;2023-01-08T09:34:11;7.80;;;6.03;;
5682;SDS011;2864;49.220;8.654;2023-01-08T09:36:37;7.87;;;6.00;;
5682;SDS011;2864;49.220;8.654;2023-01-08T09:39:03;6.63;;;5.60;;
5682;SDS011;2864;49.220;8.654;2023-01-08T09:41:32;9.30;;;5.90;;
5682;SDS011;2864;49.220;8.654;2023-01-08T09:44:00;8.60;;;6.10;;
5682;SDS011;2864;49.220;8.654;2023-01-08T09:46:28;7.90;;;5.63;;
5682;SDS011;2864;49.220;8.654;2023-01-08T09:48:55;6.40;;;4.87;;
5682;SDS011;2864;49.220;8.654;2023-01-08T09:51:26;6.77;;;4.90;;
5682;SDS011;2864;49.220;8.654;2023-01-08T09:53:57;6.50;;;5.60;;
5682;SDS011;2864;49.220;8.654;2023-01-08T09:56:23;7.60;;;5.10;;
5682;SDS011;2864;49.220;8.654;2023-01-08T09:58:57;7.40;;;5.37;;
5682;SDS011;2864;49.220;8.654;2023-01-08T10:01:28;9.77;;;5.37;;
5682;SDS011;2864;49.220;8.654;2023-01-08T10:04:03;7.17;;;4.97;;
5682;SDS011;2864;49.220;8.654;2023-01-08T10:06:51;8.30;;;5.00;;
5682;SDS011;2864;49.220;8.654;2023-01-08T10:09:35;5.30;;;4.80;;
5682;SDS011;2864;49.220;8.654;2023-01-08T10:12:02;5.43;;;4.00;;
5682;SDS011;2864;49.220;8.654;2023-01-08T10:14:30;6.23;;;4.40;;
5682;SDS011;2864;49.220;8.654;2023-01-08T10:17:00;7.17;;;4.40;;
5682;SDS011;2864;49.220;8.654;2023-01-08T10:19:29;5.90;;;5.30;;
5682;SDS011;2864;49.220;8.654;2023-01-08T10:21:55;4.90;;;4.13;;
5682;SDS011;2864;49.220;8.654;2023-01-08T10:24:32;5.37;;;4.63;;
5682;SDS011;2864;49.220;8.654;2023-01-08T10:27:08;7.27;;;5.50;;
5682;SDS011;2864;49.220;8.654;2023-01-08T10:29:44;7.43;;;4.83;;
5682;SDS011;2864;49.220;8.654;2023-01-08T10:32:14;5.17;;;4.60;;
5682;SDS011;2864;49.220;8.654;2023-01-08T10:34:42;8.77;;;4.60;;
5682;SDS011;2864;49.220;8.654;2023-01-08T10:37:14;7.13;;;4.23;;
5682;SDS011;2864;49.220;8.654;2023-01-08T10:39:46;5.50;;;3.93;;
5682;SDS011;2864;49.220;8.654;2023-01-08T10:42:12;5.80;;;3.90;;
5682;SDS011;2864;49.220;8.654;2023-01-08T10:44:53;5.83;;;4.27;;
5682;SDS011;2864;49.220;8.654;2023-01-08T10:47:24;6.07;;;4.10;;
5682;SDS011;2864;49.220;8.654;2023-01-08T10:49:57;5.57;;;4.20;;
5682;SDS011;2864;49.220;8.654;2023-01-08T10:52:31;5.93;;;4.27;;
5682;SDS011;2864;49.220;8.654;2023-01-08T10:57:42;5.57;;;4.00;;
5682;SDS011;2864;49.220;8.654;2023-01-08T11:00:25;4.57;;;3.50;;
5682;SDS011;2864;49.220;8.654;2023-01-08T11:02:52;4.47;;;3.47;;
5682;SDS011;2864;49.220;8.654;2023-01-08T11:05:18;3.73;;;3.33;;
5682;SDS011;2864;49.220;8.654;2023-01-08T11:07:47;4.90;;;3.20;;
5682;SDS011;2864;49.220;8.654;2023-01-08T11:10:22;5.97;;;3.70;;
5682;SDS011;2864;49.220;8.654;2023-01-08T11:12:53;4.50;;;3.57;;
5682;SDS011;2864;49.220;8.654;2023-01-08T11:15:40;5.87;;;3.77;;
5682;SDS011;2864;49.220;8.654;2023-01-08T11:18:19;4.33;;;3.20;;
5682;SDS011;2864;49.220;8.654;2023-01-08T11:20:47;3.47;;;2.90;;
5682;SDS011;2864;49.220;8.654;2023-01-08T11:25:47;3.00;;;2.40;;
5682;SDS011;2864;49.220;8.654;2023-01-08T11:28:48;7.30;;;2.77;;
5682;SDS011;2864;49.220;8.654;2023-01-08T11:34:04;4.30;;;2.70;;
5682;SDS011;2864;49.220;8.654;2023-01-08T11:36:43;2.53;;;2.33;;
5682;SDS011;2864;49.220;8.654;2023-01-08T11:39:14;3.30;;;2.83;;
5682;SDS011;2864;49.220;8.654;2023-01-08T11:41:50;3.70;;;2.60;;
5682;SDS011;2864;49.220;8.654;2023-01-08T11:44:22;3.67;;;2.70;;
5682;SDS011;2864;49.220;8.654;2023-01-08T11:46:57;5.83;;;2.80;;
5682;SDS011;2864;49.220;8.654;2023-01-08T12:03:02;2.63;;;2.10;;
5682;SDS011;2864;49.220;8.654;2023-01-08T12:11:11;2.20;;;2.00;;
5682;SDS011;2864;49.220;8.654;2023-01-08T12:13:54;2.63;;;1.97;;
5682;SDS011;2864;49.220;8.654;2023-01-08T12:22:43;3.73;;;2.50;;
5682;SDS011;2864;49.220;8.654;2023-01-08T12:30:41;2.47;;;2.17;;
5682;SDS011;2864;49.220;8.654;2023-01-08T12:33:41;2.30;;;2.10;;
5682;SDS011;2864;49.220;8.654;2023-01-08T12:36:05;2.80;;;2.20;;
5682;SDS011;2864;49.220;8.654;2023-01-08T12:39:19;2.93;;;2.00;;
5682;SDS011;2864;49.220;8.654;2023-01-08T12:41:26;2.27;;;1.77;;
5682;SDS011;2864;49.220;8.654;2023-01-08T12:44:02;2.50;;;1.97;;
5682;SDS011;2864;49.220;8.654;2023-01-08T12:46:33;3.03;;;2.30;;
5682;SDS011;2864;49.220;8.654;2023-01-08T12:49:01;3.77;;;2.40;;
5682;SDS011;2864;49.220;8.654;2023-01-08T13:02:05;5.23;;;4.07;;
5682;SDS011;2864;49.220;8.654;2023-01-08T13:04:56;4.73;;;3.77;;
5682;SDS011;2864;49.220;8.654;2023-01-08T13:07:27;4.57;;;3.80;;
5682;SDS011;2864;49.220;8.654;2023-01-08T13:10:17;5.50;;;3.97;;
5682;SDS011;2864;49.220;8.654;2023-01-08T13:12:53;4.77;;;2.40;;
5682;SDS011;2864;49.220;8.654;2023-01-08T13:15:23;3.50;;;2.70;;
5682;SDS011;2864;49.220;8.654;2023-01-08T13:17:50;3.53;;;2.87;;
5682;SDS011;2864;49.220;8.654;2023-01-08T13:20:25;4.57;;;3.27;;
5682;SDS011;2864;49.220;8.654;2023-01-08T13:22:52;6.50;;;5.73;;
5682;SDS011;2864;49.220;8.654;2023-01-08T13:27:46;2.53;;;2.10;;
5682;SDS011;2864;49.220;8.654;2023-01-08T13:30:32;2.97;;;2.67;;
5682;SDS011;2864;49.220;8.654;2023-01-08T13:33:02;2.10;;;1.80;;
5682;SDS011;2864;49.220;8.654;2023-01-08T13:35:47;3.17;;;2.00;;
5682;SDS011;2864;49.220;8.654;2023-01-08T13:38:14;2.87;;;1.90;;
5682;SDS011;2864;49.220;8.654;2023-01-08T13:49:06;4.80;;;2.00;;
5682;SDS011;2864;49.220;8.654;2023-01-08T13:56:36;5.57;;;3.87;;
5682;SDS011;2864;49.220;8.654;2023-01-08T13:59:02;6.07;;;3.97;;
5682;SDS011;2864;49.220;8.654;2023-01-08T14:01:29;4.27;;;3.10;;
5682;SDS011;2864;49.220;8.654;2023-01-08T14:03:55;3.50;;;2.90;;
5682;SDS011;2864;49.220;8.654;2023-01-08T14:06:25;3.40;;;3.10;;
5682;SDS011;2864;49.220;8.654;2023-01-08T14:08:54;6.23;;;3.00;;
5682;SDS011;2864;49.220;8.654;2023-01-08T14:11:23;3.83;;;3.03;;
5682;SDS011;2864;49.220;8.654;2023-01-08T14:13:54;3.77;;;2.90;;
5682;SDS011;2864;49.220;8.654;2023-01-08T14:16:20;3.00;;;2.27;;
5682;SDS011;2864;49.220;8.654;2023-01-08T14:18:46;3.30;;;2.10;;
5682;SDS011;2864;49.220;8.654;2023-01-08T14:21:13;3.50;;;2.20;;
5682;SDS011;2864;49.220;8.654;2023-01-08T14:23:40;1.57;;;1.47;;
5682;SDS011;2864;49.220;8.654;2023-01-08T14:26:28;2.87;;;1.83;;
5682;SDS011;2864;49.220;8.654;2023-01-08T14:28:55;2.20;;;1.70;;
5682;SDS011;2864;49.220;8.654;2023-01-08T14:31:22;2.73;;;1.97;;
5682;SDS011;2864;49.220;8.654;2023-01-08T14:33:51;1.70;;;1.60;;
5682;SDS011;2864;49.220;8.654;2023-01-08T14:36:19;2.60;;;1.90;;
5682;SDS011;2864;49.220;8.654;2023-01-08T14:38:45;2.00;;;1.73;;
5682;SDS011;2864;49.220;8.654;2023-01-08T14:41:15;2.20;;;1.60;;
5682;SDS011;2864;49.220;8.654;2023-01-08T14:44:15;2.80;;;2.10;;
5682;SDS011;2864;49.220;8.654;2023-01-08T14:46:41;2.07;;;1.83;;
5682;SDS011;2864;49.220;8.654;2023-01-08T14:49:12;1.90;;;1.70;;
5682;SDS011;2864;49.220;8.654;2023-01-08T14:51:53;2.40;;;2.10;;
5682;SDS011;2864;49.220;8.654;2023-01-08T14:54:21;3.60;;;1.70;;
5682;SDS011;2864;49.220;8.654;2023-01-08T14:56:52;3.27;;;1.80;;
5682;SDS011;2864;49.220;8.654;2023-01-08T14:59:23;1.80;;;1.50;;
5682;SDS011;2864;49.220;8.654;2023-01-08T15:01:56;1.90;;;1.70;;
5682;SDS011;2864;49.220;8.654;2023-01-08T15:04:24;2.30;;;2.10;;
5682;SDS011;2864;49.220;8.654;2023-01-08T15:06:52;1.73;;;1.57;;
5682;SDS011;2864;49.220;8.654;2023-01-08T15:09:33;3.37;;;2.40;;
5682;SDS011;2864;49.220;8.654;2023-01-08T15:12:06;3.70;;;3.00;;
5682;SDS011;2864;49.220;8.654;2023-01-08T15:14:46;3.87;;;2.60;;
5682;SDS011;2864;49.220;8.654;2023-01-08T15:17:16;3.27;;;2.60;;
5682;SDS011;2864;49.220;8.654;2023-01-08T15:19:45;2.27;;;2.00;;
5682;SDS011;2864;49.220;8.654;2023-01-08T15:22:29;2.70;;;2.23;;
5682;SDS011;2864;49.220;8.654;2023-01-08T15:27:22;3.17;;;2.87;;
5682;SDS011;2864;49.220;8.654;2023-01-08T15:29:49;3.33;;;3.03;;
5682;SDS011;2864;49.220;8.654;2023-01-08T15:34:42;3.43;;;3.13;;
5682;SDS011;2864;49.220;8.654;2023-01-08T15:37:09;3.87;;;3.33;;
5682;SDS011;2864;49.220;8.654;2023-01-08T15:39:35;3.30;;;3.00;;
5682;SDS011;2864;49.220;8.654;2023-01-08T15:42:20;9.67;;;6.40;;
5682;SDS011;2864;49.220;8.654;2023-01-08T15:45:11;11.80;;;7.17;;
5682;SDS011;2864;49.220;8.654;2023-01-08T15:47:39;3.60;;;3.00;;
5682;SDS011;2864;49.220;8.654;2023-01-08T15:50:05;4.10;;;3.07;;
5682;SDS011;2864;49.220;8.654;2023-01-08T15:52:31;5.23;;;3.27;;
5682;SDS011;2864;49.220;8.654;2023-01-08T15:54:58;5.60;;;3.07;;
5682;SDS011;2864;49.220;8.654;2023-01-08T15:57:25;4.30;;;3.07;;
5682;SDS011;2864;49.220;8.654;2023-01-08T15:59:51;3.03;;;2.30;;
5682;SDS011;2864;49.220;8.654;2023-01-08T16:02:17;2.93;;;2.30;;
5682;SDS011;2864;49.220;8.654;2023-01-08T16:04:43;3.67;;;2.83;;
5682;SDS011;2864;49.220;8.654;2023-01-08T16:07:09;4.53;;;3.20;;
5682;SDS011;2864;49.220;8.654;2023-01-08T16:09:35;5.47;;;4.40;;
5682;SDS011;2864;49.220;8.654;2023-01-08T16:12:00;5.30;;;4.63;;
5682;SDS011;2864;49.220;8.654;2023-01-08T16:14:26;2.97;;;2.67;;
5682;SDS011;2864;49.220;8.654;2023-01-08T16:16:54;2.17;;;1.97;;
5682;SDS011;2864;49.220;8.654;2023-01-08T16:19:20;3.47;;;2.53;;
5682;SDS011;2864;49.220;8.654;2023-01-08T16:21:45;3.23;;;2.70;;
5682;SDS011;2864;49.220;8.654;2023-01-08T16:24:14;2.87;;;2.57;;
5682;SDS011;2864;49.220;8.654;2023-01-08T16:26:40;6.50;;;3.00;;
5682;SDS011;2864;49.220;8.654;2023-01-08T16:29:05;3.80;;;2.73;;
5682;SDS011;2864;49.220;8.654;2023-01-08T16:31:31;3.20;;;2.90;;
5682;SDS011;2864;49.220;8.654;2023-01-08T16:34:03;2.80;;;2.50;;
5682;SDS011;2864;49.220;8.654;2023-01-08T16:36:29;3.77;;;3.17;;
5682;SDS011;2864;49.220;8.654;2023-01-08T16:38:55;5.17;;;3.40;;
5682;SDS011;2864;49.220;8.654;2023-01-08T16:41:21;4.57;;;3.73;;
5682;SDS011;2864;49.220;8.654;2023-01-08T16:43:46;4.23;;;3.83;;
5682;SDS011;2864;49.220;8.654;2023-01-08T16:46:13;5.17;;;4.50;;
5682;SDS011;2864;49.220;8.654;2023-01-08T16:48:41;6.30;;;5.00;;
5682;SDS011;2864;49.220;8.654;2023-01-08T16:51:07;7.20;;;5.07;;